sensor_id;sensor_type;location;lat;lon;timestamp;P1;durP1;ratioP1;P2;durP2;ratioP2
41255;SDS011;26989;45.524;10.938;2023-11-21T00:00:01;39.53;;;22.30;;
41255;SDS011;26989;45.524;10.938;2023-11-21T00:02:31;36.72;;;22.40;;
41255;SDS011;26989;45.524;10.938;2023-11-21T00:04:58;41.10;;;23.23;;
41255;SDS011;26989;45.524;10.938;2023-11-21T00:07:24;40.15;;;24.10;;
41255;SDS011;26989;45.524;10.938;2023-11-21T00:09:51;35.22;;;21.80;;
41255;SDS011;26989;45.524;10.938;2023-11-21T00:12:18;35.92;;;22.67;;
41255;SDS011;26989;45.524;10.938;2023-11-21T00:14:46;40.50;;;23.23;;
41255;SDS011;26989;45.524;10.938;2023-11-21T00:17:13;42.90;;;22.83;;
41255;SDS011;26989;45.524;10.938;2023-11-21T00:19:40;32.70;;;19.77;;
41255;SDS011;26989;45.524;10.938;2023-11-21T00:22:09;38.03;;;21.38;;
41255;SDS011;26989;45.524;10.938;2023-11-21T00:24:36;38.15;;;22.25;;
41255;SDS011;26989;45.524;10.938;2023-11-21T00:27:03;36.75;;;21.50;;
41255;SDS011;26989;45.524;10.938;2023-11-21T00:29:30;36.92;;;22.27;;
41255;SDS011;26989;45.524;10.938;2023-11-21T00:31:57;36.47;;;21.27;;
41255;SDS011;26989;45.524;10.938;2023-11-21T00:34:24;38.38;;;24.23;;
41255;SDS011;26989;45.524;10.938;2023-11-21T00:36:51;46.83;;;24.65;;
41255;SDS011;26989;45.524;10.938;2023-11-21T00:39:18;44.83;;;25.80;;
41255;SDS011;26989;45.524;10.938;2023-11-21T00:41:45;42.50;;;23.80;;
41255;SDS011;26989;45.524;10.938;2023-11-21T00:44:15;44.03;;;24.05;;
41255;SDS011;26989;45.524;10.938;2023-11-21T00:46:42;35.63;;;23.42;;
41255;SDS011;26989;45.524;10.938;2023-11-21T00:49:10;39.55;;;23.10;;
41255;SDS011;26989;45.524;10.938;2023-11-21T00:51:37;36.35;;;21.58;;
41255;SDS011;26989;45.524;10.938;2023-11-21T00:54:04;37.97;;;21.02;;
41255;SDS011;26989;45.524;10.938;2023-11-21T00:56:31;35.65;;;21.15;;
41255;SDS011;26989;45.524;10.938;2023-11-21T00:58:58;33.10;;;20.67;;
41255;SDS011;26989;45.524;10.938;2023-11-21T01:01:25;38.58;;;20.48;;
41255;SDS011;26989;45.524;10.938;2023-11-21T01:03:51;34.15;;;20.67;;
41255;SDS011;26989;45.524;10.938;2023-11-21T01:06:18;31.98;;;20.08;;
41255;SDS011;26989;45.524;10.938;2023-11-21T01:08:46;34.08;;;20.73;;
41255;SDS011;26989;45.524;10.938;2023-11-21T01:11:13;31.00;;;19.23;;
41255;SDS011;26989;45.524;10.938;2023-11-21T01:13:40;33.60;;;20.13;;
41255;SDS011;26989;45.524;10.938;2023-11-21T01:16:08;34.10;;;19.98;;
41255;SDS011;26989;45.524;10.938;2023-11-21T01:18:35;29.90;;;18.35;;
41255;SDS011;26989;45.524;10.938;2023-11-21T01:21:02;35.33;;;20.48;;
41255;SDS011;26989;45.524;10.938;2023-11-21T01:23:30;30.33;;;18.83;;
41255;SDS011;26989;45.524;10.938;2023-11-21T01:25:57;34.92;;;18.88;;
41255;SDS011;26989;45.524;10.938;2023-11-21T01:28:24;32.42;;;19.50;;
41255;SDS011;26989;45.524;10.938;2023-11-21T01:30:51;33.25;;;19.50;;
41255;SDS011;26989;45.524;10.938;2023-11-21T01:33:18;33.28;;;19.90;;
41255;SDS011;26989;45.524;10.938;2023-11-21T01:35:45;38.35;;;21.25;;
41255;SDS011;26989;45.524;10.938;2023-11-21T01:38:12;32.25;;;20.52;;
41255;SDS011;26989;45.524;10.938;2023-11-21T01:40:41;34.40;;;18.55;;
41255;SDS011;26989;45.524;10.938;2023-11-21T01:43:08;30.25;;;18.02;;
41255;SDS011;26989;45.524;10.938;2023-11-21T01:45:35;35.15;;;19.20;;
41255;SDS011;26989;45.524;10.938;2023-11-21T01:48:02;34.88;;;18.48;;
41255;SDS011;26989;45.524;10.938;2023-11-21T01:50:30;31.20;;;19.25;;
41255;SDS011;26989;45.524;10.938;2023-11-21T01:52:57;39.85;;;21.20;;
41255;SDS011;26989;45.524;10.938;2023-11-21T01:55:24;32.33;;;19.73;;
41255;SDS011;26989;45.524;10.938;2023-11-21T01:57:54;35.28;;;20.65;;
41255;SDS011;26989;45.524;10.938;2023-11-21T02:00:23;34.30;;;20.27;;
41255;SDS011;26989;45.524;10.938;2023-11-21T02:02:51;34.78;;;19.50;;
41255;SDS011;26989;45.524;10.938;2023-11-21T02:05:18;34.92;;;20.38;;
41255;SDS011;26989;45.524;10.938;2023-11-21T02:07:46;30.65;;;19.58;;
41255;SDS011;26989;45.524;10.938;2023-11-21T02:10:15;32.70;;;19.65;;
41255;SDS011;26989;45.524;10.938;2023-11-21T02:12:43;31.90;;;18.63;;
41255;SDS011;26989;45.524;10.938;2023-11-21T02:15:12;34.08;;;19.33;;
41255;SDS011;26989;45.524;10.938;2023-11-21T02:17:47;29.65;;;19.23;;
41255;SDS011;26989;45.524;10.938;2023-11-21T02:20:18;32.50;;;18.90;;
41255;SDS011;26989;45.524;10.938;2023-11-21T02:22:56;31.25;;;19.80;;
41255;SDS011;26989;45.524;10.938;2023-11-21T02:25:30;28.40;;;17.52;;
41255;SDS011;26989;45.524;10.938;2023-11-21T02:27:59;30.33;;;17.25;;
41255;SDS011;26989;45.524;10.938;2023-11-21T02:30:28;33.25;;;19.20;;
41255;SDS011;26989;45.524;10.938;2023-11-21T02:32:58;29.33;;;17.23;;
41255;SDS011;26989;45.524;10.938;2023-11-21T02:35:25;33.40;;;19.17;;
41255;SDS011;26989;45.524;10.938;2023-11-21T02:37:53;29.20;;;17.40;;
41255;SDS011;26989;45.524;10.938;2023-11-21T02:40:20;31.48;;;16.98;;
41255;SDS011;26989;45.524;10.938;2023-11-21T02:42:47;31.10;;;20.05;;
41255;SDS011;26989;45.524;10.938;2023-11-21T02:45:18;30.88;;;18.10;;
41255;SDS011;26989;45.524;10.938;2023-11-21T02:47:47;32.33;;;18.48;;
41255;SDS011;26989;45.524;10.938;2023-11-21T02:50:20;34.97;;;19.17;;
41255;SDS011;26989;45.524;10.938;2023-11-21T02:52:49;33.92;;;19.48;;
41255;SDS011;26989;45.524;10.938;2023-11-21T02:55:16;30.33;;;18.10;;
41255;SDS011;26989;45.524;10.938;2023-11-21T02:57:43;32.30;;;19.83;;
41255;SDS011;26989;45.524;10.938;2023-11-21T03:00:10;29.90;;;19.40;;
41255;SDS011;26989;45.524;10.938;2023-11-21T03:02:40;31.90;;;18.70;;
41255;SDS011;26989;45.524;10.938;2023-11-21T03:05:07;32.45;;;20.40;;
41255;SDS011;26989;45.524;10.938;2023-11-21T03:07:37;29.95;;;18.92;;
41255;SDS011;26989;45.524;10.938;2023-11-21T03:10:04;33.47;;;19.27;;
41255;SDS011;26989;45.524;10.938;2023-11-21T03:12:32;31.23;;;18.90;;
41255;SDS011;26989;45.524;10.938;2023-11-21T03:14:59;32.72;;;20.15;;
41255;SDS011;26989;45.524;10.938;2023-11-21T03:17:28;30.40;;;19.15;;
41255;SDS011;26989;45.524;10.938;2023-11-21T03:19:55;32.25;;;19.25;;
41255;SDS011;26989;45.524;10.938;2023-11-21T03:22:23;30.90;;;18.08;;
41255;SDS011;26989;45.524;10.938;2023-11-21T03:24:50;30.60;;;19.20;;
41255;SDS011;26989;45.524;10.938;2023-11-21T03:27:17;35.63;;;19.17;;
41255;SDS011;26989;45.524;10.938;2023-11-21T03:29:44;34.30;;;20.02;;
41255;SDS011;26989;45.524;10.938;2023-11-21T03:32:13;31.67;;;20.17;;
41255;SDS011;26989;45.524;10.938;2023-11-21T03:34:58;37.17;;;20.92;;
41255;SDS011;26989;45.524;10.938;2023-11-21T03:37:26;31.85;;;19.52;;
41255;SDS011;26989;45.524;10.938;2023-11-21T03:39:55;31.52;;;19.77;;
41255;SDS011;26989;45.524;10.938;2023-11-21T03:42:23;34.92;;;19.10;;
41255;SDS011;26989;45.524;10.938;2023-11-21T03:44:53;32.38;;;20.25;;
41255;SDS011;26989;45.524;10.938;2023-11-21T03:47:20;33.58;;;19.92;;
41255;SDS011;26989;45.524;10.938;2023-11-21T03:49:47;30.13;;;18.85;;
41255;SDS011;26989;45.524;10.938;2023-11-21T03:52:14;34.92;;;20.40;;
41255;SDS011;26989;45.524;10.938;2023-11-21T03:54:41;31.58;;;20.73;;
41255;SDS011;26989;45.524;10.938;2023-11-21T03:57:09;35.55;;;20.92;;
41255;SDS011;26989;45.524;10.938;2023-11-21T03:59:39;32.75;;;18.83;;
41255;SDS011;26989;45.524;10.938;2023-11-21T04:02:07;29.00;;;17.55;;
41255;SDS011;26989;45.524;10.938;2023-11-21T04:04:34;29.83;;;17.20;;
41255;SDS011;26989;45.524;10.938;2023-11-21T04:07:01;27.83;;;15.98;;
41255;SDS011;26989;45.524;10.938;2023-11-21T04:09:29;27.50;;;15.23;;
41255;SDS011;26989;45.524;10.938;2023-11-21T04:11:56;33.97;;;17.83;;
41255;SDS011;26989;45.524;10.938;2023-11-21T04:14:23;32.60;;;18.88;;
41255;SDS011;26989;45.524;10.938;2023-11-21T04:16:50;27.40;;;16.20;;
41255;SDS011;26989;45.524;10.938;2023-11-21T04:19:17;28.23;;;17.45;;
41255;SDS011;26989;45.524;10.938;2023-11-21T04:21:44;23.60;;;14.40;;
41255;SDS011;26989;45.524;10.938;2023-11-21T04:24:12;26.77;;;15.13;;
41255;SDS011;26989;45.524;10.938;2023-11-21T04:26:39;27.67;;;16.42;;
41255;SDS011;26989;45.524;10.938;2023-11-21T04:29:06;28.35;;;16.08;;
41255;SDS011;26989;45.524;10.938;2023-11-21T04:31:32;26.52;;;15.35;;
41255;SDS011;26989;45.524;10.938;2023-11-21T04:33:59;27.50;;;16.52;;
41255;SDS011;26989;45.524;10.938;2023-11-21T04:36:26;28.00;;;16.65;;
41255;SDS011;26989;45.524;10.938;2023-11-21T04:38:53;28.55;;;15.25;;
41255;SDS011;26989;45.524;10.938;2023-11-21T04:41:20;27.23;;;16.88;;
41255;SDS011;26989;45.524;10.938;2023-11-21T04:43:47;26.33;;;15.02;;
41255;SDS011;26989;45.524;10.938;2023-11-21T04:46:15;27.85;;;16.25;;
41255;SDS011;26989;45.524;10.938;2023-11-21T04:48:42;31.02;;;17.25;;
41255;SDS011;26989;45.524;10.938;2023-11-21T04:51:09;30.95;;;17.30;;
41255;SDS011;26989;45.524;10.938;2023-11-21T04:53:39;21.38;;;12.10;;
41255;SDS011;26989;45.524;10.938;2023-11-21T04:56:06;25.40;;;14.75;;
41255;SDS011;26989;45.524;10.938;2023-11-21T04:58:33;25.08;;;14.45;;
41255;SDS011;26989;45.524;10.938;2023-11-21T05:01:00;28.05;;;16.58;;
41255;SDS011;26989;45.524;10.938;2023-11-21T05:03:27;27.23;;;16.33;;
41255;SDS011;26989;45.524;10.938;2023-11-21T05:05:56;23.92;;;15.07;;
41255;SDS011;26989;45.524;10.938;2023-11-21T05:08:23;30.92;;;17.77;;
41255;SDS011;26989;45.524;10.938;2023-11-21T05:10:50;27.80;;;17.02;;
41255;SDS011;26989;45.524;10.938;2023-11-21T05:13:18;27.83;;;15.85;;
41255;SDS011;26989;45.524;10.938;2023-11-21T05:15:46;27.83;;;17.25;;
41255;SDS011;26989;45.524;10.938;2023-11-21T05:18:13;29.88;;;17.38;;
41255;SDS011;26989;45.524;10.938;2023-11-21T05:20:40;32.63;;;18.67;;
41255;SDS011;26989;45.524;10.938;2023-11-21T05:23:07;35.65;;;19.35;;
41255;SDS011;26989;45.524;10.938;2023-11-21T05:25:34;31.02;;;17.58;;
41255;SDS011;26989;45.524;10.938;2023-11-21T05:28:05;33.25;;;17.88;;
41255;SDS011;26989;45.524;10.938;2023-11-21T05:30:33;35.30;;;18.10;;
41255;SDS011;26989;45.524;10.938;2023-11-21T05:33:00;29.65;;;17.85;;
41255;SDS011;26989;45.524;10.938;2023-11-21T05:35:27;29.23;;;17.80;;
41255;SDS011;26989;45.524;10.938;2023-11-21T05:37:54;31.33;;;17.60;;
41255;SDS011;26989;45.524;10.938;2023-11-21T05:40:21;31.27;;;17.38;;
41255;SDS011;26989;45.524;10.938;2023-11-21T05:42:49;34.20;;;18.20;;
41255;SDS011;26989;45.524;10.938;2023-11-21T05:45:17;30.67;;;18.33;;
41255;SDS011;26989;45.524;10.938;2023-11-21T05:47:45;30.23;;;18.50;;
41255;SDS011;26989;45.524;10.938;2023-11-21T05:50:14;30.92;;;17.65;;
41255;SDS011;26989;45.524;10.938;2023-11-21T05:52:43;33.08;;;18.52;;
41255;SDS011;26989;45.524;10.938;2023-11-21T05:55:11;34.97;;;19.38;;
41255;SDS011;26989;45.524;10.938;2023-11-21T05:57:40;30.45;;;16.33;;
41255;SDS011;26989;45.524;10.938;2023-11-21T06:00:10;29.58;;;17.10;;
41255;SDS011;26989;45.524;10.938;2023-11-21T06:02:59;29.25;;;16.35;;
41255;SDS011;26989;45.524;10.938;2023-11-21T06:05:26;30.88;;;17.40;;
41255;SDS011;26989;45.524;10.938;2023-11-21T06:07:54;30.45;;;18.67;;
41255;SDS011;26989;45.524;10.938;2023-11-21T06:10:28;32.92;;;16.45;;
41255;SDS011;26989;45.524;10.938;2023-11-21T06:12:55;32.95;;;16.88;;
41255;SDS011;26989;45.524;10.938;2023-11-21T06:15:28;27.23;;;17.13;;
41255;SDS011;26989;45.524;10.938;2023-11-21T06:17:55;30.23;;;16.85;;
41255;SDS011;26989;45.524;10.938;2023-11-21T06:20:22;30.08;;;17.73;;
41255;SDS011;26989;45.524;10.938;2023-11-21T06:22:49;28.13;;;16.35;;
41255;SDS011;26989;45.524;10.938;2023-11-21T06:25:17;25.52;;;16.08;;
41255;SDS011;26989;45.524;10.938;2023-11-21T06:27:45;33.45;;;18.83;;
41255;SDS011;26989;45.524;10.938;2023-11-21T06:30:16;32.30;;;18.63;;
41255;SDS011;26989;45.524;10.938;2023-11-21T06:32:45;29.45;;;16.23;;
41255;SDS011;26989;45.524;10.938;2023-11-21T06:35:13;30.05;;;16.50;;
41255;SDS011;26989;45.524;10.938;2023-11-21T06:37:43;29.50;;;16.80;;
41255;SDS011;26989;45.524;10.938;2023-11-21T06:40:15;27.17;;;14.02;;
41255;SDS011;26989;45.524;10.938;2023-11-21T06:42:42;31.95;;;17.85;;
41255;SDS011;26989;45.524;10.938;2023-11-21T06:45:12;31.52;;;18.02;;
41255;SDS011;26989;45.524;10.938;2023-11-21T06:47:39;31.30;;;17.70;;
41255;SDS011;26989;45.524;10.938;2023-11-21T06:50:06;25.73;;;15.75;;
41255;SDS011;26989;45.524;10.938;2023-11-21T06:52:35;27.88;;;15.13;;
41255;SDS011;26989;45.524;10.938;2023-11-21T06:55:01;27.27;;;15.75;;
41255;SDS011;26989;45.524;10.938;2023-11-21T06:57:29;28.08;;;16.90;;
41255;SDS011;26989;45.524;10.938;2023-11-21T06:59:57;28.60;;;17.10;;
41255;SDS011;26989;45.524;10.938;2023-11-21T07:02:24;28.38;;;17.45;;
41255;SDS011;26989;45.524;10.938;2023-11-21T07:04:51;28.98;;;16.63;;
41255;SDS011;26989;45.524;10.938;2023-11-21T07:07:18;29.58;;;16.33;;
41255;SDS011;26989;45.524;10.938;2023-11-21T07:09:48;26.25;;;15.63;;
41255;SDS011;26989;45.524;10.938;2023-11-21T07:12:16;26.55;;;15.60;;
41255;SDS011;26989;45.524;10.938;2023-11-21T07:14:50;30.38;;;15.60;;
41255;SDS011;26989;45.524;10.938;2023-11-21T07:17:17;26.85;;;14.52;;
41255;SDS011;26989;45.524;10.938;2023-11-21T07:19:44;24.40;;;15.38;;
41255;SDS011;26989;45.524;10.938;2023-11-21T07:22:11;26.98;;;15.02;;
41255;SDS011;26989;45.524;10.938;2023-11-21T07:24:39;30.88;;;15.50;;
41255;SDS011;26989;45.524;10.938;2023-11-21T07:27:06;32.50;;;16.30;;
41255;SDS011;26989;45.524;10.938;2023-11-21T07:29:33;33.03;;;18.65;;
41255;SDS011;26989;45.524;10.938;2023-11-21T07:32:00;29.88;;;17.70;;
41255;SDS011;26989;45.524;10.938;2023-11-21T07:34:27;25.77;;;15.85;;
41255;SDS011;26989;45.524;10.938;2023-11-21T07:36:55;28.85;;;16.15;;
41255;SDS011;26989;45.524;10.938;2023-11-21T07:39:21;28.17;;;16.02;;
41255;SDS011;26989;45.524;10.938;2023-11-21T07:41:48;23.90;;;14.57;;
41255;SDS011;26989;45.524;10.938;2023-11-21T07:44:16;23.92;;;15.80;;
41255;SDS011;26989;45.524;10.938;2023-11-21T07:46:47;26.40;;;14.85;;
41255;SDS011;26989;45.524;10.938;2023-11-21T07:49:16;26.40;;;14.43;;
41255;SDS011;26989;45.524;10.938;2023-11-21T07:51:46;22.52;;;13.70;;
41255;SDS011;26989;45.524;10.938;2023-11-21T07:54:13;27.40;;;15.93;;
41255;SDS011;26989;45.524;10.938;2023-11-21T07:56:40;26.95;;;14.77;;
41255;SDS011;26989;45.524;10.938;2023-11-21T07:59:07;23.05;;;13.68;;
41255;SDS011;26989;45.524;10.938;2023-11-21T08:01:34;22.45;;;13.75;;
41255;SDS011;26989;45.524;10.938;2023-11-21T08:04:01;25.88;;;14.20;;
41255;SDS011;26989;45.524;10.938;2023-11-21T08:06:31;20.60;;;13.48;;
41255;SDS011;26989;45.524;10.938;2023-11-21T08:08:59;20.98;;;13.10;;
41255;SDS011;26989;45.524;10.938;2023-11-21T08:11:26;23.35;;;13.23;;
41255;SDS011;26989;45.524;10.938;2023-11-21T08:13:55;22.27;;;13.98;;
41255;SDS011;26989;45.524;10.938;2023-11-21T08:16:23;25.33;;;13.60;;
41255;SDS011;26989;45.524;10.938;2023-11-21T08:18:50;23.35;;;14.15;;
41255;SDS011;26989;45.524;10.938;2023-11-21T08:21:17;25.17;;;14.30;;
41255;SDS011;26989;45.524;10.938;2023-11-21T08:23:45;19.73;;;13.65;;
41255;SDS011;26989;45.524;10.938;2023-11-21T08:26:15;26.65;;;15.93;;
41255;SDS011;26989;45.524;10.938;2023-11-21T08:28:42;27.50;;;17.83;;
41255;SDS011;26989;45.524;10.938;2023-11-21T08:31:09;27.80;;;17.63;;
41255;SDS011;26989;45.524;10.938;2023-11-21T08:33:39;38.08;;;17.75;;
41255;SDS011;26989;45.524;10.938;2023-11-21T08:36:06;32.00;;;17.95;;
41255;SDS011;26989;45.524;10.938;2023-11-21T08:38:35;31.02;;;18.60;;
41255;SDS011;26989;45.524;10.938;2023-11-21T08:41:07;29.42;;;18.77;;
41255;SDS011;26989;45.524;10.938;2023-11-21T08:43:37;29.20;;;17.58;;
41255;SDS011;26989;45.524;10.938;2023-11-21T08:46:07;31.73;;;17.45;;
41255;SDS011;26989;45.524;10.938;2023-11-21T08:48:37;28.40;;;17.52;;
41255;SDS011;26989;45.524;10.938;2023-11-21T08:51:04;38.15;;;21.17;;
41255;SDS011;26989;45.524;10.938;2023-11-21T08:53:31;35.50;;;19.85;;
41255;SDS011;26989;45.524;10.938;2023-11-21T08:55:59;31.92;;;20.48;;
41255;SDS011;26989;45.524;10.938;2023-11-21T08:58:27;33.00;;;20.20;;
41255;SDS011;26989;45.524;10.938;2023-11-21T09:00:54;33.53;;;19.88;;
41255;SDS011;26989;45.524;10.938;2023-11-21T09:03:21;29.95;;;19.05;;
41255;SDS011;26989;45.524;10.938;2023-11-21T09:05:48;31.63;;;18.63;;
41255;SDS011;26989;45.524;10.938;2023-11-21T09:08:15;28.98;;;19.30;;
41255;SDS011;26989;45.524;10.938;2023-11-21T09:10:42;33.22;;;20.40;;
41255;SDS011;26989;45.524;10.938;2023-11-21T09:13:11;31.15;;;19.15;;
41255;SDS011;26989;45.524;10.938;2023-11-21T09:15:38;31.95;;;20.40;;
41255;SDS011;26989;45.524;10.938;2023-11-21T09:18:06;32.50;;;20.73;;
41255;SDS011;26989;45.524;10.938;2023-11-21T09:20:33;32.97;;;20.35;;
41255;SDS011;26989;45.524;10.938;2023-11-21T09:23:00;32.13;;;20.05;;
41255;SDS011;26989;45.524;10.938;2023-11-21T09:25:27;30.73;;;19.95;;
41255;SDS011;26989;45.524;10.938;2023-11-21T09:27:55;31.98;;;21.17;;
41255;SDS011;26989;45.524;10.938;2023-11-21T09:30:26;32.75;;;20.77;;
41255;SDS011;26989;45.524;10.938;2023-11-21T09:32:53;32.70;;;21.27;;
41255;SDS011;26989;45.524;10.938;2023-11-21T09:35:21;33.97;;;21.95;;
41255;SDS011;26989;45.524;10.938;2023-11-21T09:37:48;33.65;;;21.13;;
41255;SDS011;26989;45.524;10.938;2023-11-21T09:40:15;34.45;;;21.50;;
41255;SDS011;26989;45.524;10.938;2023-11-21T09:42:53;33.22;;;20.17;;
41255;SDS011;26989;45.524;10.938;2023-11-21T09:45:26;35.20;;;21.35;;
41255;SDS011;26989;45.524;10.938;2023-11-21T09:47:55;35.67;;;20.77;;
41255;SDS011;26989;45.524;10.938;2023-11-21T09:50:24;35.13;;;20.88;;
41255;SDS011;26989;45.524;10.938;2023-11-21T09:55:47;33.78;;;20.58;;
41255;SDS011;26989;45.524;10.938;2023-11-21T09:58:17;31.42;;;19.92;;
41255;SDS011;26989;45.524;10.938;2023-11-21T10:00:46;38.95;;;22.90;;
41255;SDS011;26989;45.524;10.938;2023-11-21T10:03:14;31.70;;;20.05;;
41255;SDS011;26989;45.524;10.938;2023-11-21T10:05:43;32.33;;;20.42;;
41255;SDS011;26989;45.524;10.938;2023-11-21T10:08:12;31.55;;;19.58;;
41255;SDS011;26989;45.524;10.938;2023-11-21T10:10:42;32.22;;;18.98;;
41255;SDS011;26989;45.524;10.938;2023-11-21T10:13:14;32.60;;;18.98;;
41255;SDS011;26989;45.524;10.938;2023-11-21T10:15:49;26.38;;;17.65;;
41255;SDS011;26989;45.524;10.938;2023-11-21T10:18:18;25.67;;;16.77;;
41255;SDS011;26989;45.524;10.938;2023-11-21T10:20:45;27.17;;;17.38;;
41255;SDS011;26989;45.524;10.938;2023-11-21T10:23:20;29.23;;;15.95;;
41255;SDS011;26989;45.524;10.938;2023-11-21T10:25:50;28.17;;;17.85;;
41255;SDS011;26989;45.524;10.938;2023-11-21T10:28:23;35.60;;;20.77;;
41255;SDS011;26989;45.524;10.938;2023-11-21T10:30:50;30.02;;;19.17;;
41255;SDS011;26989;45.524;10.938;2023-11-21T10:33:20;32.28;;;19.77;;
41255;SDS011;26989;45.524;10.938;2023-11-21T10:35:54;32.67;;;20.70;;
41255;SDS011;26989;45.524;10.938;2023-11-21T10:38:21;30.52;;;19.27;;
41255;SDS011;26989;45.524;10.938;2023-11-21T10:40:54;28.98;;;19.48;;
41255;SDS011;26989;45.524;10.938;2023-11-21T10:43:24;31.30;;;19.52;;
41255;SDS011;26989;45.524;10.938;2023-11-21T10:45:52;35.60;;;19.70;;
41255;SDS011;26989;45.524;10.938;2023-11-21T10:48:26;31.85;;;18.60;;
41255;SDS011;26989;45.524;10.938;2023-11-21T10:50:53;27.02;;;18.15;;
41255;SDS011;26989;45.524;10.938;2023-11-21T10:53:22;30.05;;;17.55;;
41255;SDS011;26989;45.524;10.938;2023-11-21T10:55:56;29.13;;;18.30;;
41255;SDS011;26989;45.524;10.938;2023-11-21T10:58:32;52.28;;;21.40;;
41255;SDS011;26989;45.524;10.938;2023-11-21T11:01:01;38.65;;;19.85;;
41255;SDS011;26989;45.524;10.938;2023-11-21T11:03:32;27.17;;;17.42;;
41255;SDS011;26989;45.524;10.938;2023-11-21T11:06:04;50.92;;;24.30;;
41255;SDS011;26989;45.524;10.938;2023-11-21T11:08:33;27.95;;;18.15;;
41255;SDS011;26989;45.524;10.938;2023-11-21T11:11:01;27.73;;;17.48;;
41255;SDS011;26989;45.524;10.938;2023-11-21T11:13:28;27.38;;;17.05;;
41255;SDS011;26989;45.524;10.938;2023-11-21T11:16:00;26.00;;;17.23;;
41255;SDS011;26989;45.524;10.938;2023-11-21T11:18:28;28.25;;;17.90;;
41255;SDS011;26989;45.524;10.938;2023-11-21T11:21:07;27.23;;;16.33;;
41255;SDS011;26989;45.524;10.938;2023-11-21T11:26:47;26.50;;;15.63;;
41255;SDS011;26989;45.524;10.938;2023-11-21T11:32:21;26.02;;;16.05;;
41255;SDS011;26989;45.524;10.938;2023-11-21T11:35:01;29.13;;;14.68;;
41255;SDS011;26989;45.524;10.938;2023-11-21T11:37:37;31.60;;;15.65;;
41255;SDS011;26989;45.524;10.938;2023-11-21T11:40:07;29.52;;;14.32;;
41255;SDS011;26989;45.524;10.938;2023-11-21T11:42:35;20.73;;;13.77;;
41255;SDS011;26989;45.524;10.938;2023-11-21T11:45:16;22.92;;;13.20;;
41255;SDS011;26989;45.524;10.938;2023-11-21T11:50:13;4.60;;;1.88;;
41255;SDS011;26989;45.524;10.938;2023-11-21T11:52:44;4.43;;;1.80;;
41255;SDS011;26989;45.524;10.938;2023-11-21T11:55:19;4.32;;;1.10;;
41255;SDS011;26989;45.524;10.938;2023-11-21T11:57:51;2.63;;;1.55;;
41255;SDS011;26989;45.524;10.938;2023-11-21T12:00:22;4.03;;;1.75;;
41255;SDS011;26989;45.524;10.938;2023-11-21T12:03:04;3.45;;;1.63;;
41255;SDS011;26989;45.524;10.938;2023-11-21T12:05:34;3.53;;;1.88;;
41255;SDS011;26989;45.524;10.938;2023-11-21T12:08:05;3.67;;;1.75;;
41255;SDS011;26989;45.524;10.938;2023-11-21T12:10:34;3.28;;;1.88;;
41255;SDS011;26989;45.524;10.938;2023-11-21T12:13:05;4.88;;;1.95;;
41255;SDS011;26989;45.524;10.938;2023-11-21T12:15:36;3.47;;;1.80;;
41255;SDS011;26989;45.524;10.938;2023-11-21T12:18:05;4.15;;;2.03;;
41255;SDS011;26989;45.524;10.938;2023-11-21T12:20:33;6.40;;;2.15;;
41255;SDS011;26989;45.524;10.938;2023-11-21T12:23:06;4.05;;;1.95;;
41255;SDS011;26989;45.524;10.938;2023-11-21T12:25:36;5.40;;;2.33;;
41255;SDS011;26989;45.524;10.938;2023-11-21T12:28:03;3.65;;;2.25;;
41255;SDS011;26989;45.524;10.938;2023-11-21T12:30:32;3.83;;;1.58;;
41255;SDS011;26989;45.524;10.938;2023-11-21T12:33:02;1.50;;;0.73;;
41255;SDS011;26989;45.524;10.938;2023-11-21T12:35:33;1.48;;;0.82;;
41255;SDS011;26989;45.524;10.938;2023-11-21T12:38:02;0.60;;;0.52;;
41255;SDS011;26989;45.524;10.938;2023-11-21T12:40:31;0.90;;;0.77;;
41255;SDS011;26989;45.524;10.938;2023-11-21T12:42:59;0.20;;;0.20;;
41255;SDS011;26989;45.524;10.938;2023-11-21T12:45:28;4.65;;;0.50;;
41255;SDS011;26989;45.524;10.938;2023-11-21T12:47:59;3.95;;;0.30;;
41255;SDS011;26989;45.524;10.938;2023-11-21T12:53:01;0.47;;;0.10;;
41255;SDS011;26989;45.524;10.938;2023-11-21T12:55:35;0.17;;;0.17;;
41255;SDS011;26989;45.524;10.938;2023-11-21T12:58:07;0.98;;;0.20;;
41255;SDS011;26989;45.524;10.938;2023-11-21T13:03:12;0.15;;;0.10;;
41255;SDS011;26989;45.524;10.938;2023-11-21T13:08:13;0.22;;;0.10;;
41255;SDS011;26989;45.524;10.938;2023-11-21T13:10:45;0.20;;;0.17;;
41255;SDS011;26989;45.524;10.938;2023-11-21T13:13:15;0.70;;;0.30;;
41255;SDS011;26989;45.524;10.938;2023-11-21T13:18:16;0.63;;;0.47;;
41255;SDS011;26989;45.524;10.938;2023-11-21T13:20:43;0.40;;;0.22;;
41255;SDS011;26989;45.524;10.938;2023-11-21T13:23:12;1.77;;;0.60;;
41255;SDS011;26989;45.524;10.938;2023-11-21T13:25:40;0.40;;;0.38;;
41255;SDS011;26989;45.524;10.938;2023-11-21T13:28:19;0.40;;;0.20;;
41255;SDS011;26989;45.524;10.938;2023-11-21T13:30:48;0.63;;;0.25;;
41255;SDS011;26989;45.524;10.938;2023-11-21T13:33:18;0.43;;;0.20;;
41255;SDS011;26989;45.524;10.938;2023-11-21T13:35:48;0.22;;;0.13;;
41255;SDS011;26989;45.524;10.938;2023-11-21T13:38:17;1.02;;;0.52;;
41255;SDS011;26989;45.524;10.938;2023-11-21T13:40:52;1.25;;;0.22;;
41255;SDS011;26989;45.524;10.938;2023-11-21T13:43:21;0.88;;;0.40;;
41255;SDS011;26989;45.524;10.938;2023-11-21T13:45:51;0.57;;;0.20;;
41255;SDS011;26989;45.524;10.938;2023-11-21T13:48:26;0.90;;;0.30;;
41255;SDS011;26989;45.524;10.938;2023-11-21T13:51:08;0.30;;;0.20;;
41255;SDS011;26989;45.524;10.938;2023-11-21T13:53:45;0.80;;;0.10;;
41255;SDS011;26989;45.524;10.938;2023-11-21T13:56:19;1.13;;;0.28;;
41255;SDS011;26989;45.524;10.938;2023-11-21T13:58:51;1.33;;;0.60;;
41255;SDS011;26989;45.524;10.938;2023-11-21T14:01:19;0.25;;;0.22;;
41255;SDS011;26989;45.524;10.938;2023-11-21T14:03:57;1.80;;;0.40;;
41255;SDS011;26989;45.524;10.938;2023-11-21T14:06:34;8.15;;;3.08;;
41255;SDS011;26989;45.524;10.938;2023-11-21T14:09:17;1.00;;;0.50;;
41255;SDS011;26989;45.524;10.938;2023-11-21T14:11:52;0.32;;;0.20;;
41255;SDS011;26989;45.524;10.938;2023-11-21T14:14:21;1.90;;;0.70;;
41255;SDS011;26989;45.524;10.938;2023-11-21T14:16:48;4.75;;;2.03;;
41255;SDS011;26989;45.524;10.938;2023-11-21T14:19:16;8.07;;;2.80;;
41255;SDS011;26989;45.524;10.938;2023-11-21T14:21:44;0.85;;;0.30;;
41255;SDS011;26989;45.524;10.938;2023-11-21T14:24:12;0.10;;;0.10;;
41255;SDS011;26989;45.524;10.938;2023-11-21T14:26:40;0.52;;;0.40;;
41255;SDS011;26989;45.524;10.938;2023-11-21T14:29:09;0.52;;;0.40;;
41255;SDS011;26989;45.524;10.938;2023-11-21T14:31:40;0.43;;;0.30;;
41255;SDS011;26989;45.524;10.938;2023-11-21T14:34:07;0.50;;;0.28;;
41255;SDS011;26989;45.524;10.938;2023-11-21T14:36:35;0.77;;;0.35;;
41255;SDS011;26989;45.524;10.938;2023-11-21T14:39:03;0.35;;;0.30;;
41255;SDS011;26989;45.524;10.938;2023-11-21T14:41:35;0.43;;;0.22;;
41255;SDS011;26989;45.524;10.938;2023-11-21T14:44:04;0.30;;;0.30;;